sensor_id;sensor_type;location;lat;lon;timestamp;pressure;altitude;pressure_sealevel;temperature;humidity
41686;BME280;27370;42.764;23.432;2023-03-16T00:00:31;94662.59;;;1.37;100.00
41686;BME280;27370;42.764;23.432;2023-03-16T00:02:57;94682.81;;;1.45;100.00
41686;BME280;27370;42.764;23.432;2023-03-16T00:05:22;94682.38;;;1.36;100.00
41686;BME280;27370;42.764;23.432;2023-03-16T00:07:50;94686.91;;;1.32;100.00
41686;BME280;27370;42.764;23.432;2023-03-16T00:10:15;94694.50;;;1.30;100.00
41686;BME280;27370;42.764;23.432;2023-03-16T00:12:41;94680.38;;;1.22;100.00
41686;BME280;27370;42.764;23.432;2023-03-16T00:15:08;94689.13;;;1.22;100.00
41686;BME280;27370;42.764;23.432;2023-03-16T00:17:34;94684.50;;;1.16;100.00
41686;BME280;27370;42.764;23.432;2023-03-16T00:19:59;94695.59;;;1.21;100.00
41686;BME280;27370;42.764;23.432;2023-03-16T00:22:28;94697.88;;;1.19;100.00
41686;BME280;27370;42.764;23.432;2023-03-16T00:24:55;94697.53;;;1.25;100.00
41686;BME280;27370;42.764;23.432;2023-03-16T00:27:22;94698.25;;;1.18;100.00
41686;BME280;27370;42.764;23.432;2023-03-16T00:29:50;94691.00;;;1.18;100.00
41686;BME280;27370;42.764;23.432;2023-03-16T00:32:28;94700.50;;;1.16;100.00
41686;BME280;27370;42.764;23.432;2023-03-16T00:34:54;94706.22;;;1.14;100.00
41686;BME280;27370;42.764;23.432;2023-03-16T00:37:21;94706.53;;;1.13;100.00
41686;BME280;27370;42.764;23.432;2023-03-16T00:39:48;94701.94;;;1.06;100.00
41686;BME280;27370;42.764;23.432;2023-03-16T00:42:16;94708.03;;;1.07;100.00
41686;BME280;27370;42.764;23.432;2023-03-16T00:44:42;94714.13;;;1.07;100.00
41686;BME280;27370;42.764;23.432;2023-03-16T00:47:08;94718.63;;;1.00;100.00
41686;BME280;27370;42.764;23.432;2023-03-16T00:49:35;94710.19;;;0.94;100.00
41686;BME280;27370;42.764;23.432;2023-03-16T00:52:02;94727.00;;;0.98;100.00
41686;BME280;27370;42.764;23.432;2023-03-16T00:54:30;94710.19;;;0.94;100.00
41686;BME280;27370;42.764;23.432;2023-03-16T00:56:57;94712.88;;;0.94;100.00
41686;BME280;27370;42.764;23.432;2023-03-16T00:59:23;94712.81;;;0.90;100.00
41686;BME280;27370;42.764;23.432;2023-03-16T01:01:51;94717.81;;;0.92;100.00
41686;BME280;27370;42.764;23.432;2023-03-16T01:04:18;94715.03;;;0.85;100.00
41686;BME280;27370;42.764;23.432;2023-03-16T01:06:45;94723.78;;;0.82;100.00
41686;BME280;27370;42.764;23.432;2023-03-16T01:09:11;94718.38;;;0.75;100.00
41686;BME280;27370;42.764;23.432;2023-03-16T01:11:39;94727.53;;;0.77;100.00
41686;BME280;27370;42.764;23.432;2023-03-16T01:14:08;94722.53;;;0.72;100.00
41686;BME280;27370;42.764;23.432;2023-03-16T01:16:34;94719.88;;;0.72;100.00
41686;BME280;27370;42.764;23.432;2023-03-16T01:19:00;94729.31;;;0.66;100.00
41686;BME280;27370;42.764;23.432;2023-03-16T01:21:26;94731.59;;;0.68;100.00
41686;BME280;27370;42.764;23.432;2023-03-16T01:23:52;94717.84;;;0.62;100.00
41686;BME280;27370;42.764;23.432;2023-03-16T01:26:19;94712.13;;;0.60;100.00
41686;BME280;27370;42.764;23.432;2023-03-16T01:28:46;94725.84;;;0.62;100.00
41686;BME280;27370;42.764;23.432;2023-03-16T01:31:13;94731.84;;;0.55;100.00
41686;BME280;27370;42.764;23.432;2023-03-16T01:33:40;94735.97;;;0.49;100.00
41686;BME280;27370;42.764;23.432;2023-03-16T01:36:10;94731.38;;;0.46;100.00
41686;BME280;27370;42.764;23.432;2023-03-16T01:38:43;94731.63;;;0.38;100.00
41686;BME280;27370;42.764;23.432;2023-03-16T01:41:10;94728.91;;;0.30;100.00
41686;BME280;27370;42.764;23.432;2023-03-16T01:43:38;94735.66;;;0.24;100.00
41686;BME280;27370;42.764;23.432;2023-03-16T01:57:23;94756.13;;;0.20;100.00
41686;BME280;27370;42.764;23.432;2023-03-16T01:59:55;94754.09;;;0.10;100.00
41686;BME280;27370;42.764;23.432;2023-03-16T02:02:26;94747.28;;;0.13;100.00
41686;BME280;27370;42.764;23.432;2023-03-16T02:07:27;94772.69;;;0.07;100.00
41686;BME280;27370;42.764;23.432;2023-03-16T02:09:57;94773.78;;;0.02;100.00
41686;BME280;27370;42.764;23.432;2023-03-16T02:12:25;94784.50;;;0.09;100.00
41686;BME280;27370;42.764;23.432;2023-03-16T02:14:53;94767.19;;;-0.04;100.00
41686;BME280;27370;42.764;23.432;2023-03-16T02:17:24;94778.31;;;0.02;100.00
41686;BME280;27370;42.764;23.432;2023-03-16T02:22:56;94781.69;;;-0.02;100.00
41686;BME280;27370;42.764;23.432;2023-03-16T02:25:26;94791.09;;;-0.08;100.00
41686;BME280;27370;42.764;23.432;2023-03-16T02:28:11;94789.22;;;-0.07;100.00
41686;BME280;27370;42.764;23.432;2023-03-16T02:30:42;94786.09;;;-0.13;100.00
41686;BME280;27370;42.764;23.432;2023-03-16T02:33:08;94790.19;;;-0.19;100.00
41686;BME280;27370;42.764;23.432;2023-03-16T02:35:33;94790.53;;;-0.20;100.00
41686;BME280;27370;42.764;23.432;2023-03-16T02:38:00;94785.63;;;-0.18;100.00
41686;BME280;27370;42.764;23.432;2023-03-16T02:40:32;94803.91;;;-0.17;100.00
41686;BME280;27370;42.764;23.432;2023-03-16T02:43:16;94793.25;;;-0.17;100.00
41686;BME280;27370;42.764;23.432;2023-03-16T02:46:06;94801.88;;;-0.23;100.00
41686;BME280;27370;42.764;23.432;2023-03-16T02:48:39;94808.75;;;-0.22;100.00
41686;BME280;27370;42.764;23.432;2023-03-16T02:51:08;94803.34;;;-0.26;100.00
41686;BME280;27370;42.764;23.432;2023-03-16T02:53:33;94806.72;;;-0.29;100.00
41686;BME280;27370;42.764;23.432;2023-03-16T02:56:00;94804.88;;;-0.25;100.00
41686;BME280;27370;42.764;23.432;2023-03-16T02:58:28;94802.22;;;-0.25;100.00
41686;BME280;27370;42.764;23.432;2023-03-16T03:00:54;94806.72;;;-0.29;100.00
41686;BME280;27370;42.764;23.432;2023-03-16T03:03:19;94799.16;;;-0.27;100.00
41686;BME280;27370;42.764;23.432;2023-03-16T03:05:46;94813.63;;;-0.24;100.00
41686;BME280;27370;42.764;23.432;2023-03-16T03:08:12;94811.59;;;-0.35;100.00
41686;BME280;27370;42.764;23.432;2023-03-16T03:10:39;94828.41;;;-0.27;100.00
41686;BME280;27370;42.764;23.432;2023-03-16T03:13:05;94824.13;;;-0.35;100.00
41686;BME280;27370;42.764;23.432;2023-03-16T03:15:32;94824.06;;;-0.39;100.00
41686;BME280;27370;42.764;23.432;2023-03-16T03:18:03;94822.59;;;-0.36;100.00
41686;BME280;27370;42.764;23.432;2023-03-16T03:20:30;94820.03;;;-0.52;100.00
41686;BME280;27370;42.764;23.432;2023-03-16T03:22:55;94831.56;;;-0.44;100.00
41686;BME280;27370;42.764;23.432;2023-03-16T03:25:22;94825.13;;;-0.43;100.00
41686;BME280;27370;42.764;23.432;2023-03-16T03:27:49;94837.66;;;-0.44;100.00
41686;BME280;27370;42.764;23.432;2023-03-16T03:30:23;94838.69;;;-0.48;100.00
41686;BME280;27370;42.764;23.432;2023-03-16T03:32:49;94833.78;;;-0.46;100.00
41686;BME280;27370;42.764;23.432;2023-03-16T03:35:18;94843.75;;;-0.43;100.00
41686;BME280;27370;42.764;23.432;2023-03-16T03:37:46;94838.78;;;-0.45;100.00
41686;BME280;27370;42.764;23.432;2023-03-16T03:40:14;94847.94;;;-0.42;100.00
41686;BME280;27370;42.764;23.432;2023-03-16T03:42:42;94842.91;;;-0.47;100.00
41686;BME280;27370;42.764;23.432;2023-03-16T03:45:10;94855.91;;;-0.42;100.00
41686;BME280;27370;42.764;23.432;2023-03-16T03:47:39;94850.72;;;-0.35;100.00
41686;BME280;27370;42.764;23.432;2023-03-16T03:50:08;94864.31;;;-0.40;100.00
41686;BME280;27370;42.764;23.432;2023-03-16T03:52:43;94857.72;;;-0.46;100.00
41686;BME280;27370;42.764;23.432;2023-03-16T03:55:09;94877.25;;;-0.39;100.00
41686;BME280;27370;42.764;23.432;2023-03-16T03:57:35;94877.19;;;-0.42;100.00
41686;BME280;27370;42.764;23.432;2023-03-16T04:00:00;94876.06;;;-0.41;100.00
41686;BME280;27370;42.764;23.432;2023-03-16T04:02:38;94878.72;;;-0.41;100.00
41686;BME280;27370;42.764;23.432;2023-03-16T04:05:07;94882.16;;;-0.41;100.00
41686;BME280;27370;42.764;23.432;2023-03-16T04:07:33;94879.16;;;-0.39;100.00
41686;BME280;27370;42.764;23.432;2023-03-16T04:10:02;94887.41;;;-0.44;100.00
41686;BME280;27370;42.764;23.432;2023-03-16T04:12:34;94885.94;;;-0.42;100.00
41686;BME280;27370;42.764;23.432;2023-03-16T04:14:59;94884.06;;;-0.41;100.00
41686;BME280;27370;42.764;23.432;2023-03-16T04:17:31;94877.19;;;-0.42;100.00
41686;BME280;27370;42.764;23.432;2023-03-16T04:20:00;94884.00;;;-0.45;100.00
41686;BME280;27370;42.764;23.432;2023-03-16T04:22:26;94883.91;;;-0.48;100.00
41686;BME280;27370;42.764;23.432;2023-03-16T04:24:56;94882.44;;;-0.46;100.00
41686;BME280;27370;42.764;23.432;2023-03-16T04:27:23;94897.69;;;-0.43;100.00
41686;BME280;27370;42.764;23.432;2023-03-16T04:29:49;94909.59;;;-0.37;100.00
41686;BME280;27370;42.764;23.432;2023-03-16T04:32:14;94902.25;;;-0.43;100.00
41686;BME280;27370;42.764;23.432;2023-03-16T04:34:41;94900.34;;;-0.43;100.00
41686;BME280;27370;42.764;23.432;2023-03-16T04:37:09;94910.66;;;-0.41;100.00
41686;BME280;27370;42.764;23.432;2023-03-16T04:39:37;94905.75;;;-0.39;100.00
41686;BME280;27370;42.764;23.432;2023-03-16T04:42:02;94908.47;;;-0.36;100.00
41686;BME280;27370;42.764;23.432;2023-03-16T04:44:29;94919.44;;;-0.37;100.00
41686;BME280;27370;42.764;23.432;2023-03-16T04:46:55;94910.50;;;-0.48;100.00
41686;BME280;27370;42.764;23.432;2023-03-16T04:49:22;94918.34;;;-0.36;100.00
41686;BME280;27370;42.764;23.432;2023-03-16T04:51:49;94926.31;;;-0.36;100.00
41686;BME280;27370;42.764;23.432;2023-03-16T04:54:17;94928.25;;;-0.33;100.00
41686;BME280;27370;42.764;23.432;2023-03-16T04:56:43;94934.00;;;-0.31;100.00
41686;BME280;27370;42.764;23.432;2023-03-16T04:59:17;94939.19;;;-0.38;100.00
41686;BME280;27370;42.764;23.432;2023-03-16T05:01:48;94944.56;;;-0.35;100.00
41686;BME280;27370;42.764;23.432;2023-03-16T05:04:15;94941.09;;;-0.39;100.00
41686;BME280;27370;42.764;23.432;2023-03-16T05:06:41;94951.13;;;-0.28;100.00
41686;BME280;27370;42.764;23.432;2023-03-16T05:09:07;94957.22;;;-0.28;100.00
41686;BME280;27370;42.764;23.432;2023-03-16T05:11:35;94943.44;;;-0.34;100.00
41686;BME280;27370;42.764;23.432;2023-03-16T05:14:03;94950.31;;;-0.33;100.00
41686;BME280;27370;42.764;23.432;2023-03-16T05:16:32;94961.31;;;-0.34;100.00
41686;BME280;27370;42.764;23.432;2023-03-16T05:18:58;94944.50;;;-0.38;100.00
41686;BME280;27370;42.764;23.432;2023-03-16T05:21:28;94961.00;;;-0.29;100.00
41686;BME280;27370;42.764;23.432;2023-03-16T05:24:00;94966.31;;;-0.29;100.00
41686;BME280;27370;42.764;23.432;2023-03-16T05:26:26;94970.09;;;-0.30;100.00
41686;BME280;27370;42.764;23.432;2023-03-16T05:28:52;94967.81;;;-0.32;100.00
41686;BME280;27370;42.764;23.432;2023-03-16T05:31:22;94973.19;;;-0.28;100.00
41686;BME280;27370;42.764;23.432;2023-03-16T05:33:52;94962.84;;;-0.33;100.00
41686;BME280;27370;42.764;23.432;2023-03-16T05:36:19;94975.06;;;-0.28;100.00
41686;BME280;27370;42.764;23.432;2023-03-16T05:38:48;94977.31;;;-0.31;100.00
41686;BME280;27370;42.764;23.432;2023-03-16T05:41:23;94983.00;;;-0.32;100.00
41686;BME280;27370;42.764;23.432;2023-03-16T05:43:59;94985.38;;;-0.27;100.00
41686;BME280;27370;42.764;23.432;2023-03-16T05:46:32;94976.19;;;-0.29;100.00
41686;BME280;27370;42.764;23.432;2023-03-16T05:49:00;94986.53;;;-0.24;100.00
41686;BME280;27370;42.764;23.432;2023-03-16T05:51:27;94984.53;;;-0.31;100.00
41686;BME280;27370;42.764;23.432;2023-03-16T05:53:53;94998.31;;;-0.25;100.00
41686;BME280;27370;42.764;23.432;2023-03-16T05:56:30;94986.41;;;-0.32;100.00
41686;BME280;27370;42.764;23.432;2023-03-16T05:58:57;95002.44;;;-0.28;100.00
41686;BME280;27370;42.764;23.432;2023-03-16T06:01:24;95001.97;;;-0.34;100.00
41686;BME280;27370;42.764;23.432;2023-03-16T06:03:50;95007.28;;;-0.34;100.00
41686;BME280;27370;42.764;23.432;2023-03-16T06:06:20;95009.31;;;-0.27;100.00
41686;BME280;27370;42.764;23.432;2023-03-16T06:08:56;95005.41;;;-0.33;100.00
41686;BME280;27370;42.764;23.432;2023-03-16T06:11:23;95015.81;;;-0.24;100.00
41686;BME280;27370;42.764;23.432;2023-03-16T06:13:49;95021.63;;;-0.19;100.00
41686;BME280;27370;42.764;23.432;2023-03-16T06:16:15;95011.25;;;-0.24;100.00
41686;BME280;27370;42.764;23.432;2023-03-16T06:18:42;95024.31;;;-0.19;100.00
41686;BME280;27370;42.764;23.432;2023-03-16T06:21:07;95028.75;;;-0.23;100.00
41686;BME280;27370;42.764;23.432;2023-03-16T06:23:34;95026.59;;;-0.17;100.00
41686;BME280;27370;42.764;23.432;2023-03-16T06:26:00;95041.50;;;-0.13;100.00
41686;BME280;27370;42.764;23.432;2023-03-16T06:28:29;95040.44;;;-0.08;100.00
41686;BME280;27370;42.764;23.432;2023-03-16T06:30:56;95041.28;;;-0.04;100.00
41686;BME280;27370;42.764;23.432;2023-03-16T06:33:25;95032.88;;;-0.06;100.00
41686;BME280;27370;42.764;23.432;2023-03-16T06:35:50;95051.31;;;0.03;100.00
41686;BME280;27370;42.764;23.432;2023-03-16T06:38:25;95041.63;;;-0.06;100.00
41686;BME280;27370;42.764;23.432;2023-03-16T06:41:02;95057.81;;;0.05;100.00
41686;BME280;27370;42.764;23.432;2023-03-16T06:43:30;95057.47;;;0.07;100.00
41686;BME280;27370;42.764;23.432;2023-03-16T06:45:55;95061.31;;;0.09;100.00
41686;BME280;27370;42.764;23.432;2023-03-16T06:48:21;95059.56;;;0.17;100.00
41686;BME280;27370;42.764;23.432;2023-03-16T06:50:47;95070.06;;;0.10;100.00
41686;BME280;27370;42.764;23.432;2023-03-16T06:53:18;95076.66;;;0.16;100.00
41686;BME280;27370;42.764;23.432;2023-03-16T06:55:44;95070.19;;;0.17;100.00
41686;BME280;27370;42.764;23.432;2023-03-16T06:58:10;95075.22;;;0.22;100.00
41686;BME280;27370;42.764;23.432;2023-03-16T07:00:36;95075.59;;;0.20;100.00
41686;BME280;27370;42.764;23.432;2023-03-16T07:03:02;95080.28;;;0.27;100.00
41686;BME280;27370;42.764;23.432;2023-03-16T07:05:29;95080.00;;;0.13;100.00
41686;BME280;27370;42.764;23.432;2023-03-16T07:07:55;95090.78;;;0.20;100.00
41686;BME280;27370;42.764;23.432;2023-03-16T07:10:20;95101.53;;;0.23;100.00
41686;BME280;27370;42.764;23.432;2023-03-16T07:12:46;95095.00;;;0.21;100.00
41686;BME280;27370;42.764;23.432;2023-03-16T07:15:12;95096.53;;;0.22;100.00
41686;BME280;27370;42.764;23.432;2023-03-16T07:17:38;95101.16;;;0.25;100.00
41686;BME280;27370;42.764;23.432;2023-03-16T07:20:06;95099.53;;;0.20;100.00
41686;BME280;27370;42.764;23.432;2023-03-16T07:22:36;95089.53;;;0.14;100.00
41686;BME280;27370;42.764;23.432;2023-03-16T07:25:04;95095.56;;;0.30;100.00
41686;BME280;27370;42.764;23.432;2023-03-16T07:27:30;95103.47;;;0.26;100.00
41686;BME280;27370;42.764;23.432;2023-03-16T07:29:58;95095.97;;;0.32;100.00
41686;BME280;27370;42.764;23.432;2023-03-16T07:32:24;95111.34;;;0.42;100.00
41686;BME280;27370;42.764;23.432;2023-03-16T07:34:50;95118.22;;;0.43;100.00
41686;BME280;27370;42.764;23.432;2023-03-16T07:37:16;95121.31;;;0.45;100.00
41686;BME280;27370;42.764;23.432;2023-03-16T07:39:43;95119.50;;;0.49;100.00
41686;BME280;27370;42.764;23.432;2023-03-16T07:42:16;95125.94;;;0.48;100.00
41686;BME280;27370;42.764;23.432;2023-03-16T07:44:51;95119.34;;;0.42;100.00
41686;BME280;27370;42.764;23.432;2023-03-16T07:47:17;95120.53;;;0.45;100.00
41686;BME280;27370;42.764;23.432;2023-03-16T07:49:43;95136.78;;;0.59;100.00
41686;BME280;27370;42.764;23.432;2023-03-16T07:52:09;95123.22;;;0.68;100.00
41686;BME280;27370;42.764;23.432;2023-03-16T07:54:39;95135.69;;;0.83;100.00
41686;BME280;27370;42.764;23.432;2023-03-16T07:57:07;95135.97;;;0.78;100.00
41686;BME280;27370;42.764;23.432;2023-03-16T07:59:39;95137.63;;;0.86;100.00
41686;BME280;27370;42.764;23.432;2023-03-16T08:02:11;95137.41;;;0.95;100.00
41686;BME280;27370;42.764;23.432;2023-03-16T08:04:38;95138.25;;;0.99;100.00
41686;BME280;27370;42.764;23.432;2023-03-16T08:07:07;95142.81;;;0.98;100.00
41686;BME280;27370;42.764;23.432;2023-03-16T08:09:47;95132.06;;;1.17;100.00
41686;BME280;27370;42.764;23.432;2023-03-16T08:12:17;95137.00;;;1.15;100.00
41686;BME280;27370;42.764;23.432;2023-03-16T08:14:42;95139.47;;;1.28;100.00
41686;BME280;27370;42.764;23.432;2023-03-16T08:17:15;95146.78;;;1.34;100.00
41686;BME280;27370;42.764;23.432;2023-03-16T08:19:41;95159.09;;;1.39;100.00
41686;BME280;27370;42.764;23.432;2023-03-16T08:22:08;95144.69;;;1.20;100.00
41686;BME280;27370;42.764;23.432;2023-03-16T08:24:38;95159.44;;;1.37;100.00
41686;BME280;27370;42.764;23.432;2023-03-16T08:27:07;95157.34;;;1.50;100.00
41686;BME280;27370;42.764;23.432;2023-03-16T08:29:34;95163.63;;;1.61;100.00
41686;BME280;27370;42.764;23.432;2023-03-16T08:32:01;95165.25;;;1.69;100.00
41686;BME280;27370;42.764;23.432;2023-03-16T08:34:31;95168.09;;;1.57;100.00
41686;BME280;27370;42.764;23.432;2023-03-16T08:36:58;95168.00;;;1.50;100.00
41686;BME280;27370;42.764;23.432;2023-03-16T08:39:24;95160.22;;;1.38;100.00
41686;BME280;27370;42.764;23.432;2023-03-16T08:41:50;95168.69;;;1.43;100.00
41686;BME280;27370;42.764;23.432;2023-03-16T08:44:29;95171.91;;;1.56;100.00
41686;BME280;27370;42.764;23.432;2023-03-16T08:46:54;95172.13;;;1.70;100.00
41686;BME280;27370;42.764;23.432;2023-03-16T08:49:20;95163.03;;;1.48;100.00
41686;BME280;27370;42.764;23.432;2023-03-16T08:51:50;95171.75;;;1.45;100.00
41686;BME280;27370;42.764;23.432;2023-03-16T08:54:16;95185.97;;;1.53;100.00
41686;BME280;27370;42.764;23.432;2023-03-16T08:56:41;95183.59;;;1.48;100.00
41686;BME280;27370;42.764;23.432;2023-03-16T08:59:07;95178.53;;;1.39;100.00
41686;BME280;27370;42.764;23.432;2023-03-16T09:01:34;95191.72;;;1.55;100.00
41686;BME280;27370;42.764;23.432;2023-03-16T09:03:59;95191.06;;;1.62;100.00
41686;BME280;27370;42.764;23.432;2023-03-16T09:06:25;95193.38;;;1.63;100.00
41686;BME280;27370;42.764;23.432;2023-03-16T09:08:51;95184.56;;;1.59;100.00
41686;BME280;27370;42.764;23.432;2023-03-16T09:11:18;95193.75;;;1.62;100.00
41686;BME280;27370;42.764;23.432;2023-03-16T09:13:45;95194.56;;;1.66;100.00
41686;BME280;27370;42.764;23.432;2023-03-16T09:16:12;95191.13;;;1.65;100.00
41686;BME280;27370;42.764;23.432;2023-03-16T09:18:38;95194.81;;;2.10;100.00
41686;BME280;27370;42.764;23.432;2023-03-16T09:21:06;95192.22;;;2.17;100.00
41686;BME280;27370;42.764;23.432;2023-03-16T09:23:33;95189.53;;;2.17;100.00
41686;BME280;27370;42.764;23.432;2023-03-16T09:26:00;95205.47;;;2.40;100.00
41686;BME280;27370;42.764;23.432;2023-03-16T09:28:29;95200.47;;;2.35;100.00
41686;BME280;27370;42.764;23.432;2023-03-16T09:30:57;95209.38;;;2.46;100.00
41686;BME280;27370;42.764;23.432;2023-03-16T09:33:24;95216.75;;;2.56;100.00
41686;BME280;27370;42.764;23.432;2023-03-16T09:35:50;95216.00;;;2.56;100.00
41686;BME280;27370;42.764;23.432;2023-03-16T09:38:17;95211.53;;;2.67;100.00
41686;BME280;27370;42.764;23.432;2023-03-16T09:40:44;95202.97;;;2.51;100.00
41686;BME280;27370;42.764;23.432;2023-03-16T09:46:06;95214.78;;;2.50;100.00
41686;BME280;27370;42.764;23.432;2023-03-16T09:48:36;95217.50;;;2.53;100.00
41686;BME280;27370;42.764;23.432;2023-03-16T09:51:04;95217.53;;;2.57;100.00
41686;BME280;27370;42.764;23.432;2023-03-16T09:53:38;95224.59;;;2.72;100.00
41686;BME280;27370;42.764;23.432;2023-03-16T09:56:09;95213.56;;;2.47;100.00
41686;BME280;27370;42.764;23.432;2023-03-16T09:58:35;95225.41;;;2.76;100.00
41686;BME280;27370;42.764;23.432;2023-03-16T10:03:54;95229.03;;;2.94;100.00
41686;BME280;27370;42.764;23.432;2023-03-16T10:06:25;95229.50;;;3.03;100.00
41686;BME280;27370;42.764;23.432;2023-03-16T10:11:40;95231.97;;;3.19;100.00
41686;BME280;27370;42.764;23.432;2023-03-16T10:14:36;95228.59;;;3.26;100.00
41686;BME280;27370;42.764;23.432;2023-03-16T10:19:53;95236.84;;;3.51;100.00
41686;BME280;27370;42.764;23.432;2023-03-16T10:22:30;95229.31;;;3.63;100.00
41686;BME280;27370;42.764;23.432;2023-03-16T10:27:42;95229.56;;;3.51;100.00
41686;BME280;27370;42.764;23.432;2023-03-16T10:30:34;95230.16;;;3.75;100.00
41686;BME280;27370;42.764;23.432;2023-03-16T10:35:47;95238.22;;;3.82;100.00
41686;BME280;27370;42.764;23.432;2023-03-16T10:38:36;95231.84;;;3.97;100.00
41686;BME280;27370;42.764;23.432;2023-03-16T10:44:30;95221.34;;;4.33;100.00
41686;BME280;27370;42.764;23.432;2023-03-16T10:46:42;95227.22;;;4.59;100.00
41686;BME280;27370;42.764;23.432;2023-03-16T10:51:45;95221.59;;;4.89;100.00
41686;BME280;27370;42.764;23.432;2023-03-16T10:54:15;95240.75;;;4.91;100.00
41686;BME280;27370;42.764;23.432;2023-03-16T10:56:44;95246.13;;;4.91;100.00
41686;BME280;27370;42.764;23.432;2023-03-16T10:59:29;95238.47;;;4.93;100.00
41686;BME280;27370;42.764;23.432;2023-03-16T11:01:57;95232.63;;;4.74;100.00
41686;BME280;27370;42.764;23.432;2023-03-16T11:04:23;95239.59;;;4.85;100.00
41686;BME280;27370;42.764;23.432;2023-03-16T11:06:54;95227.38;;;4.99;100.00
41686;BME280;27370;42.764;23.432;2023-03-16T11:09:31;95231.50;;;4.75;100.00
41686;BME280;27370;42.764;23.432;2023-03-16T11:11:58;95234.22;;;4.89;100.00
41686;BME280;27370;42.764;23.432;2023-03-16T11:14:26;95229.63;;;4.82;100.00
41686;BME280;27370;42.764;23.432;2023-03-16T11:17:02;95241.56;;;5.03;100.00
41686;BME280;27370;42.764;23.432;2023-03-16T11:19:32;95239.59;;;4.92;100.00
41686;BME280;27370;42.764;23.432;2023-03-16T11:22:04;95231.59;;;5.00;100.00
41686;BME280;27370;42.764;23.432;2023-03-16T11:24:54;95225.78;;;4.83;100.00
41686;BME280;27370;42.764;23.432;2023-03-16T11:27:24;95224.00;;;5.23;100.00
41686;BME280;27370;42.764;23.432;2023-03-16T11:32:37;95230.91;;;5.28;100.00
41686;BME280;27370;42.764;23.432;2023-03-16T11:38:41;95234.63;;;4.91;100.00
41686;BME280;27370;42.764;23.432;2023-03-16T11:41:19;95231.56;;;4.92;100.00
41686;BME280;27370;42.764;23.432;2023-03-16T11:43:59;95221.19;;;4.84;100.00
41686;BME280;27370;42.764;23.432;2023-03-16T11:54:48;95231.81;;;4.55;100.00
41686;BME280;27370;42.764;23.432;2023-03-16T12:10:58;95237.06;;;4.38;100.00
41686;BME280;27370;42.764;23.432;2023-03-16T12:13:55;95234.44;;;4.52;100.00
41686;BME280;27370;42.764;23.432;2023-03-16T12:19:48;95241.69;;;4.41;100.00
41686;BME280;27370;42.764;23.432;2023-03-16T12:22:27;95241.19;;;4.21;100.00
41686;BME280;27370;42.764;23.432;2023-03-16T12:24:53;95244.13;;;4.02;100.00
41686;BME280;27370;42.764;23.432;2023-03-16T12:27:48;95237.44;;;4.33;100.00
41686;BME280;27370;42.764;23.432;2023-03-16T12:30:39;95244.72;;;3.81;100.00
41686;BME280;27370;42.764;23.432;2023-03-16T12:41:26;95262.94;;;4.09;100.00
41686;BME280;27370;42.764;23.432;2023-03-16T12:44:05;95260.28;;;3.64;100.00
41686;BME280;27370;42.764;23.432;2023-03-16T12:46:57;95253.66;;;3.51;100.00
41686;BME280;27370;42.764;23.432;2023-03-16T12:49:25;95254.75;;;3.43;100.00
41686;BME280;27370;42.764;23.432;2023-03-16T12:52:01;95261.94;;;3.39;100.00
41686;BME280;27370;42.764;23.432;2023-03-16T12:54:27;95261.66;;;3.11;100.00
41686;BME280;27370;42.764;23.432;2023-03-16T12:57:00;95264.38;;;3.14;100.00
41686;BME280;27370;42.764;23.432;2023-03-16T12:59:36;95259.41;;;3.13;100.00
41686;BME280;27370;42.764;23.432;2023-03-16T13:02:03;95262.38;;;3.04;100.00
41686;BME280;27370;42.764;23.432;2023-03-16T13:04:34;95270.09;;;3.13;100.00
41686;BME280;27370;42.764;23.432;2023-03-16T13:07:17;95274.69;;;3.12;100.00
41686;BME280;27370;42.764;23.432;2023-03-16T13:10:12;95267.25;;;3.32;100.00
41686;BME280;27370;42.764;23.432;2023-03-16T13:12:38;95275.81;;;3.48;100.00
41686;BME280;27370;42.764;23.432;2023-03-16T13:20:48;95281.44;;;2.99;100.00
41686;BME280;27370;42.764;23.432;2023-03-16T13:26:01;95286.06;;;3.05;100.00
41686;BME280;27370;42.764;23.432;2023-03-16T13:28:30;95288.03;;;3.08;100.00
41686;BME280;27370;42.764;23.432;2023-03-16T13:30:57;95292.78;;;2.92;100.00
41686;BME280;27370;42.764;23.432;2023-03-16T13:33:26;95299.03;;;3.03;100.00
41686;BME280;27370;42.764;23.432;2023-03-16T13:35:54;95294.19;;;2.79;100.00
41686;BME280;27370;42.764;23.432;2023-03-16T13:38:22;95283.97;;;2.58;100.00
41686;BME280;27370;42.764;23.432;2023-03-16T13:40:54;95287.34;;;2.52;100.00
41686;BME280;27370;42.764;23.432;2023-03-16T13:43:23;95297.75;;;2.60;100.00
41686;BME280;27370;42.764;23.432;2023-03-16T13:45:49;95303.94;;;2.68;100.00
41686;BME280;27370;42.764;23.432;2023-03-16T13:48:16;95294.47;;;2.44;100.00
41686;BME280;27370;42.764;23.432;2023-03-16T13:50:42;95304.06;;;2.49;100.00
41686;BME280;27370;42.764;23.432;2023-03-16T13:53:29;95309.13;;;2.54;100.00
41686;BME280;27370;42.764;23.432;2023-03-16T13:55:58;95299.81;;;2.44;100.00
41686;BME280;27370;42.764;23.432;2023-03-16T13:58:32;95310.06;;;2.68;100.00
41686;BME280;27370;42.764;23.432;2023-03-16T14:01:01;95306.53;;;2.61;100.00
41686;BME280;27370;42.764;23.432;2023-03-16T14:03:35;95317.31;;;2.68;100.00
41686;BME280;27370;42.764;23.432;2023-03-16T14:06:02;95321.84;;;2.64;100.00
41686;BME280;27370;42.764;23.432;2023-03-16T14:08:29;95320.03;;;2.71;100.00
41686;BME280;27370;42.764;23.432;2023-03-16T14:10:55;95317.50;;;2.82;100.00
41686;BME280;27370;42.764;23.432;2023-03-16T14:15:55;95328.06;;;3.01;100.00
41686;BME280;27370;42.764;23.432;2023-03-16T14:18:34;95324.59;;;2.97;100.00
41686;BME280;27370;42.764;23.432;2023-03-16T14:21:13;95329.03;;;3.20;100.00
41686;BME280;27370;42.764;23.432;2023-03-16T14:23:47;95340.38;;;3.10;100.00
41686;BME280;27370;42.764;23.432;2023-03-16T14:26:17;95326.53;;;3.00;100.00
41686;BME280;27370;42.764;23.432;2023-03-16T14:31:35;95334.44;;;2.93;100.00